Milton High School FL US WEATHERSTEM current weather conditions

sailwx.info

Air temperature 1.8° C
Dewpoint 0.8° C

Last reported at 2020-Jan-25 13:00 UTC.
Time now 2020-Jan-25 13:25 UTC

Location: N 30°38' W 087°03'.
View on Google Maps.

See reports from other nearby stations

  
Tides and Currents Weather Stations Pressure Air Temp Water Temp Dewpoint Dewpoint Depression Visibility Wind Speed Wind Dir Waves Ship Positions
date/time (UTC)wind fromknots sea level pressurealtimeterstation pressurevisibilityair tempwater tempwave heightnotes
2020-Jan-25 13:00 1.8
2020-Jan-25 12:50 1.8
2020-Jan-25 12:30 010 0 gusting 0 2.2
2020-Jan-25 12:20 2.3
2020-Jan-25 12:10 2.4
2020-Jan-25 12:00 2.5
2020-Jan-25 11:50 2.8
2020-Jan-25 11:40 010 0 gusting 0 2.9
2020-Jan-25 11:30 3.2
2020-Jan-25 11:20 3.4
2020-Jan-25 11:10 011 0 gusting 0 3.7
2020-Jan-25 11:00 3.9
2020-Jan-25 10:50 4.2
2020-Jan-25 10:40 4.3
2020-Jan-25 10:30 011 0 gusting 0 4.4
2020-Jan-25 10:20 012 0 gusting 0 4.5
2020-Jan-25 10:10 012 1 gusting 1 4.6
2020-Jan-25 10:00 355 3 gusting 3 4.7
2020-Jan-25 09:50 011 2 gusting 2 4.9
2020-Jan-25 09:40 5.1
2020-Jan-25 09:30 009 1 gusting 1 5.1
2020-Jan-25 09:20 005 0 gusting 0 5.2
2020-Jan-25 09:10 012 0 gusting 0 5.5
2020-Jan-25 09:00 012 1 gusting 1 5.7
2020-Jan-25 08:50 5.9
2020-Jan-25 08:40 013 0 gusting 0 6.1
2020-Jan-25 08:30 013 0 gusting 1 6.3
2020-Jan-25 08:20 011 1 gusting 1 6.4
2020-Jan-25 08:10 014 3 gusting 3 6.6
2020-Jan-25 08:00 005 5 gusting 5 6.7
2020-Jan-25 07:50 355 2 gusting 2 6.9
2020-Jan-25 07:40 014 3 gusting 4 7.1
2020-Jan-25 07:30 013 2 gusting 3 7.2
2020-Jan-25 07:20 344 2 gusting 2 7.4
2020-Jan-25 07:10 005 3 gusting 3 7.5
2020-Jan-25 07:00 360 3 gusting 4 7.6
2020-Jan-25 06:50 005 4 gusting 4 7.8
2020-Jan-25 06:40 005 2 gusting 2 7.9
2020-Jan-25 06:30 344 3 gusting 3 8.1
2020-Jan-25 06:20 005 4 gusting 4 8.3
2020-Jan-25 06:10 020 6 gusting 6 8.4
2020-Jan-25 06:00 360 5 gusting 5 8.6
2020-Jan-25 05:50 005 4 gusting 4 8.7
2020-Jan-25 05:30 355 4 gusting 4 8.7
2020-Jan-25 05:20 340 2 gusting 3 8.6
2020-Jan-25 05:10 355 0 gusting 0 8.6
2020-Jan-25 05:00 8.5
2020-Jan-25 04:50 316 1 gusting 1 8.7
2020-Jan-25 04:40 300 2 gusting 2 8.8
2020-Jan-25 04:30 302 0 gusting 0 8.9
2020-Jan-25 04:20 294 0 gusting 0 9.1
2020-Jan-25 04:10 296 2 gusting 2 9.3
2020-Jan-25 04:00 306 0 gusting 0 9.6
2020-Jan-25 03:50 289 0 gusting 0 9.8
2020-Jan-25 03:40 289 0 gusting 0 9.9
2020-Jan-25 03:30 302 2 gusting 2 9.9
2020-Jan-25 03:20 296 3 gusting 3 9.8
2020-Jan-25 03:10 291 2 gusting 2 9.8
2020-Jan-25 03:00 272 0 gusting 0 10.1
2020-Jan-25 02:50 10.3
2020-Jan-25 02:40 272 2 gusting 2 10.4
2020-Jan-25 02:30 272 3 gusting 3 10.6
2020-Jan-25 02:20 268 2 gusting 2 10.7
2020-Jan-25 02:10 268 2 gusting 2 10.7
2020-Jan-25 02:00 266 2 gusting 2 10.8
2020-Jan-25 01:50 284 2 gusting 2 10.9
2020-Jan-25 01:40 278 1 gusting 1 11.1
2020-Jan-25 01:30 258 1 gusting 1 11.3
2020-Jan-25 01:20 254 2 gusting 2 11.5
2020-Jan-25 01:10 252 2 gusting 2 11.7
2020-Jan-25 01:00 252 1 gusting 2 11.8
2020-Jan-25 00:50 263 1 gusting 1 11.9
2020-Jan-25 00:40 275 2 gusting 2 11.8
2020-Jan-25 00:30 275 1 gusting 1 11.7
2020-Jan-25 00:20 289 1 gusting 1 11.9
2020-Jan-25 00:10 12.8
2020-Jan-25 00:00 13.3
2020-Jan-24 23:50 14.4
2020-Jan-24 23:40 15.3
2020-Jan-24 23:30 15.9
2020-Jan-24 23:20 16.4
2020-Jan-24 23:00 289 0 gusting 0 16.9
2020-Jan-24 22:50 276 3 gusting 3 17.1
2020-Jan-24 22:40 297 3 gusting 3 17.3
2020-Jan-24 22:30 309 2 gusting 3 17.4
2020-Jan-24 22:20 281 3 gusting 3 17.4
2020-Jan-24 22:10 303 2 gusting 3 17.6
2020-Jan-24 22:00 312 3 gusting 4 17.7
2020-Jan-24 21:50 313 2 gusting 2 18.0
2020-Jan-24 21:40 312 1 gusting 1 18.1
2020-Jan-24 21:30 296 4 gusting 4 18.1
2020-Jan-24 21:20 275 1 gusting 1 18.3
2020-Jan-24 21:10 292 6 gusting 6 18.2
2020-Jan-24 21:00 321 2 gusting 2 17.8
2020-Jan-24 20:50 302 2 gusting 3 17.8
2020-Jan-24 20:40 014 3 gusting 6 17.9
2020-Jan-24 20:30 321 3 gusting 4 17.7
2020-Jan-24 20:20 337 4 gusting 4 17.6
2020-Jan-24 20:10 343 3 gusting 3 17.4
2020-Jan-24 20:00 287 2 gusting 2 17.4
2020-Jan-24 19:50 307 2 gusting 2 17.3
2020-Jan-24 19:40 360 7 gusting 7 17.1
2020-Jan-24 19:30 022 9 gusting 10 17.1
2020-Jan-24 19:20 302 3 gusting 6 17.1
2020-Jan-24 19:10 346 2 gusting 2 16.7
2020-Jan-24 19:00 300 2 gusting 3 16.8
2020-Jan-24 18:50 311 6 gusting 7 16.9
2020-Jan-24 18:40 315 5 gusting 6 16.8
2020-Jan-24 18:30 324 5 gusting 6 16.7
2020-Jan-24 18:20 011 4 gusting 4 16.4
2020-Jan-24 18:10 014 7 gusting 7 16.2
2020-Jan-24 18:00 302 2 gusting 2 15.6
2020-Jan-24 17:50 292 6 gusting 6 14.9
2020-Jan-24 17:40 313 2 gusting 2 14.3
2020-Jan-24 17:30 302 4 gusting 4 13.8
2020-Jan-24 17:20 296 3 gusting 3 13.4
2020-Jan-24 17:10 302 3 gusting 4 13.4
2020-Jan-24 17:00 306 6 gusting 6 13.9
2020-Jan-24 16:50 304 6 gusting 6 14.2
2020-Jan-24 16:40 311 7 gusting 7 14.2
2020-Jan-24 16:30 317 1 gusting 2 14.2
2020-Jan-24 16:20 295 1 gusting 1 13.9
2020-Jan-24 16:10 009 4 gusting 6 13.8
2020-Jan-24 16:00 346 4 gusting 5 13.7
2020-Jan-24 15:50 321 3 gusting 3 13.6
2020-Jan-24 15:40 338 1 gusting 1 13.4
2020-Jan-24 15:30 316 4 gusting 4 13.1
2020-Jan-24 15:20 296 2 gusting 2 13.0
2020-Jan-24 15:10 313 1 gusting 1 12.9
2020-Jan-24 15:00 314 6 gusting 7 12.8
2020-Jan-24 14:50 322 4 gusting 4 12.8
2020-Jan-24 14:40 347 2 gusting 2 12.8
2020-Jan-24 14:30 292 3 gusting 3 12.8
2020-Jan-24 14:20 311 4 gusting 4 12.8
2020-Jan-24 14:10 323 4 gusting 4 12.8
2020-Jan-24 14:00 351 3 gusting 3 12.7
2020-Jan-24 13:50 017 0 gusting 0 12.7
2020-Jan-24 13:40 310 3 gusting 3 12.7
2020-Jan-24 13:30 333 0 gusting 0 12.6
2020-Jan-24 13:20 333 4 gusting 4 12.6
2020-Jan-24 13:10 318 5 gusting 5 12.6
2020-Jan-24 13:00 338 2 gusting 2 12.6
2020-Jan-24 12:50 005 3 gusting 3 12.7
2020-Jan-24 12:40 300 0 gusting 0 12.8
2020-Jan-24 12:30 296 1 gusting 1 12.8
2020-Jan-24 12:20 287 3 gusting 3 12.9
2020-Jan-24 12:10 13.0
2020-Jan-24 12:00 293 1 gusting 2 12.6
2020-Jan-24 11:50 11.8
2020-Jan-24 11:40 11.5
2020-Jan-24 11:30 11.5
2020-Jan-24 11:20 11.4
2020-Jan-24 11:10 11.4
2020-Jan-24 11:00 11.5
2020-Jan-24 10:50 321 0 gusting 0 11.6
2020-Jan-24 10:40 11.6
2020-Jan-24 10:30 11.7
2020-Jan-24 10:20 11.7
2020-Jan-24 10:10 11.8
2020-Jan-24 10:00 11.9
2020-Jan-24 09:50 12.2
2020-Jan-24 09:40 12.3
2020-Jan-24 09:30 321 0 gusting 0 12.4
2020-Jan-24 09:20 12.6
2020-Jan-24 09:10 12.8
2020-Jan-24 09:00 12.9
2020-Jan-24 08:50 13.1
2020-Jan-24 08:40 13.5
2020-Jan-24 08:30 13.9
2020-Jan-24 08:20 14.2
2020-Jan-24 08:10 321 0 gusting 0 14.3
2020-Jan-24 08:00 14.5
2020-Jan-24 07:50 14.6
2020-Jan-24 07:40 321 1 gusting 1 14.7
2020-Jan-24 07:30 14.6
2020-Jan-24 07:20 14.2
2020-Jan-24 07:10 063 0 gusting 0 13.8
2020-Jan-24 07:00 066 1 gusting 1 13.4
2020-Jan-24 06:50 053 0 gusting 0 13.4
2020-Jan-24 06:40 071 2 gusting 2 13.4
2020-Jan-24 06:30 071 1 gusting 1 13.4
2020-Jan-24 06:20 038 1 gusting 1 13.3
2020-Jan-24 06:10 035 2 gusting 2 13.3
2020-Jan-24 06:00 066 0 gusting 0 13.3
2020-Jan-24 05:50 13.2
2020-Jan-24 05:40 066 1 gusting 1 13.2
2020-Jan-24 05:30 13.2
2020-Jan-24 05:20 066 0 gusting 0 13.2
2020-Jan-24 05:10 13.2
2020-Jan-24 05:00 071 1 gusting 1 13.3
2020-Jan-24 04:50 085 1 gusting 1 13.3
2020-Jan-24 04:40 13.2
2020-Jan-24 04:30 065 1 gusting 1 13.2
2020-Jan-24 04:20 086 1 gusting 1 13.2
2020-Jan-24 04:10 111 1 gusting 1 13.2
2020-Jan-24 04:00 071 2 gusting 2 13.2
2020-Jan-24 03:50 332 1 gusting 1 13.2
2020-Jan-24 03:40 351 2 gusting 2 13.2
2020-Jan-24 03:30 074 1 gusting 1 13.1
2020-Jan-24 03:20 109 1 gusting 1 13.1
2020-Jan-24 03:10 112 2 gusting 2 12.9
2020-Jan-24 03:00 085 0 gusting 0 12.8
2020-Jan-24 02:50 12.8
2020-Jan-24 02:40 062 1 gusting 1 12.8
2020-Jan-24 02:30 071 1 gusting 1 12.7
2020-Jan-24 02:20 065 2 gusting 2 12.7
2020-Jan-24 02:10 067 4 gusting 4 12.7
2020-Jan-24 02:00 086 1 gusting 1 12.6
2020-Jan-24 01:50 072 1 gusting 1 12.5
2020-Jan-24 01:40 077 1 gusting 1 12.4
2020-Jan-24 01:30 078 2 gusting 3 12.3
2020-Jan-24 01:20 123 4 gusting 4 12.3
2020-Jan-24 01:10 080 3 gusting 3 12.3
2020-Jan-24 01:00 103 3 gusting 3 12.2
2020-Jan-24 00:50 077 2 gusting 2 12.1
2020-Jan-24 00:40 083 1 gusting 2 12.1
2020-Jan-24 00:30 067 3 gusting 3 12.1
2020-Jan-24 00:20 077 3 gusting 3 12.1
2020-Jan-24 00:00 084 1 gusting 1 12.1
2020-Jan-23 23:50 117 2 gusting 2 12.1
2020-Jan-23 23:40 069 3 gusting 3 12.1
2020-Jan-23 23:30 096 3 gusting 3 12.1
2020-Jan-23 23:20 067 2 gusting 2 12.2
2020-Jan-23 23:10 114 2 gusting 2 12.1
2020-Jan-23 23:00 089 3 gusting 4 12.1
2020-Jan-23 22:50 083 4 gusting 4 12.1
2020-Jan-23 22:40 094 2 gusting 3 12.1
2020-Jan-23 22:30 088 4 gusting 4 12.2
2020-Jan-23 22:20 130 2 gusting 2 12.2
2020-Jan-23 22:10 088 3 gusting 3 12.2
2020-Jan-23 22:00 082 2 gusting 3 12.3
2020-Jan-23 21:40 117 3 gusting 3 12.5
2020-Jan-23 21:30 119 1 gusting 1 12.6
2020-Jan-23 21:20 126 2 gusting 2 12.8
2020-Jan-23 21:10 093 0 gusting 0 12.9
2020-Jan-23 21:00 121 0 gusting 0 13.1
2020-Jan-23 20:50 103 2 gusting 2 13.2
2020-Jan-23 20:40 093 2 gusting 2 13.4
2020-Jan-23 20:30 154 1 gusting 1 13.7
2020-Jan-23 20:20 090 2 gusting 2 13.9
2020-Jan-23 20:10 128 1 gusting 1 14.1
2020-Jan-23 20:00 110 3 gusting 3 14.3
2020-Jan-23 19:50 094 2 gusting 2 14.6
2020-Jan-23 19:40 126 3 gusting 3 14.4
2020-Jan-23 19:30 109 5 gusting 5 14.3
2020-Jan-23 19:10 112 5 gusting 5 14.1
2020-Jan-23 19:00 092 3 gusting 3 13.9
2020-Jan-23 18:50 107 3 gusting 3 13.6
2020-Jan-23 18:40 074 4 gusting 4 13.4
2020-Jan-23 18:30 120 7 gusting 7 13.4
2020-Jan-23 18:20 106 6 gusting 6 13.5
2020-Jan-23 18:10 083 6 gusting 6 13.2
2020-Jan-23 18:00 088 6 gusting 6 13.1
2020-Jan-23 17:50 120 3 gusting 3 12.7
2020-Jan-23 17:30 131 8 gusting 9 11.8
2020-Jan-23 17:20 117 3 gusting 3 11.7
2020-Jan-23 17:10 104 7 gusting 8 11.4
2020-Jan-23 17:00 089 6 gusting 7 11.3
2020-Jan-23 16:50 085 4 gusting 4 11.1
2020-Jan-23 16:40 123 6 gusting 6 10.9
2020-Jan-23 16:30 088 4 gusting 4 10.7
2020-Jan-23 16:20 092 7 gusting 7 10.5
2020-Jan-23 16:10 099 3 gusting 3 10.3
2020-Jan-23 16:00 093 6 gusting 6 9.8
2020-Jan-23 15:50 111 8 gusting 8 9.6
2020-Jan-23 15:40 111 7 gusting 7 9.4
2020-Jan-23 15:30 076 3 gusting 3 9.4
2020-Jan-23 15:20 113 0 gusting 0 9.2
2020-Jan-23 15:10 086 4 gusting 6 9.2
2020-Jan-23 15:00 077 3 gusting 4 9.1
2020-Jan-23 14:50 103 6 gusting 6 9.1
2020-Jan-23 14:40 096 7 gusting 8 9.1
2020-Jan-23 14:30 085 4 gusting 4 9.1
2020-Jan-23 14:20 098 5 gusting 5 8.9
2020-Jan-23 14:10 083 3 gusting 3 8.9
2020-Jan-23 14:00 087 3 gusting 4 8.8
2020-Jan-23 13:50 082 2 gusting 2 8.7
2020-Jan-23 13:40 080 4 gusting 4 8.6
2020-Jan-23 13:30 069 3 gusting 3 8.5
2020-Jan-23 13:20 082 6 gusting 6 8.3
2020-Jan-23 13:10 082 4 gusting 4 8.2
2020-Jan-23 13:00 055 5 gusting 5 8.1